Home > Products > Valid Products > TAF

000
FTUS45 KRIW 292320
TAFBPI
TAF
KBPI 292320Z 3000/3024 VRB06KT P6SM SKC
     FM300300 34008KT P6SM SKC
     FM300900 VRB04KT P6SM SKC
     FM301900 23007KT P6SM SKC=



000
FTUS45 KRIW 292320
TAFCOD
TAF
KCOD 292320Z 3000/3024 08011KT P6SM FEW080
     FM300400 20005KT P6SM SKC
     FM301800 06007KT P6SM FEW090
      AMD LTD TO CLD VIS AND WIND=



000
FTUS45 KRIW 292320
TAFLND
TAF
KLND 292320Z 3000/3024 06006KT P6SM SKC
     FM300300 24009KT P6SM SKC
     FM301400 VRB03KT P6SM SKC
     FM302100 06006KT P6SM SKC=



000
FTUS45 KRIW 292320
TAFJAC
TAF
KJAC 292320Z 3000/3024 23006KT P6SM SKC
     FM300300 36006KT P6SM SKC
     FM301400 VRB03KT P6SM SKC
     FM302000 19008KT P6SM FEW080
      AMD LTD TO CLD VIS AND WIND=



000
FTUS45 KRIW 292320
TAFRIW
TAF
KRIW 292320Z 3000/3024 VRB06KT P6SM SKC
     FM300800 31008KT P6SM SKC
     FM301900 08007KT P6SM SKC=



000
FTUS45 KRIW 292320
TAFRKS
TAF
KRKS 292320Z 3000/3024 VRB05KT P6SM SKC
     FM302100 26009KT P6SM SKC=



000
FTUS45 KRIW 292320
TAFCPR
TAF
KCPR 292320Z 3000/3024 31011KT P6SM SKC
     FM300800 25007KT P6SM SKC
     FM302000 VRB06KT P6SM FEW120=



000
FTUS45 KRIW 292320
TAFWRL
TAF
KWRL 292320Z 3000/3024 05007KT P6SM SKC
     FM300500 16005KT P6SM SKC
     FM301500 VRB04KT P6SM SKC=



000
FTUS45 KRIW 291732
TAFBPI
TAF
KBPI 291732Z 2918/3018 24007KT P6SM SKC
     FM300300 33008KT P6SM SKC
     FM300900 VRB04KT P6SM SKC=



000
FTUS45 KRIW 291732
TAFCOD
TAF
KCOD 291732Z 2918/3018 20009G14KT P6SM FEW100
     FM300500 VRB04KT P6SM SKC
     FM301700 06007KT P6SM FEW090
      AMD LTD TO CLD VIS AND WIND=



000
FTUS45 KRIW 291732
TAFJAC
TAF
KJAC 291732Z 2918/3018 VRB05KT P6SM SKC
     FM292000 28008KT P6SM FEW080
     FM300300 36006KT P6SM SKC
     FM301400 VRB03KT P6SM SKC
      AMD LTD TO CLD VIS AND WIND=



000
FTUS45 KRIW 291732
TAFRIW
TAF
KRIW 291732Z 2918/3018 VRB06KT P6SM SKC
     FM300800 31008KT P6SM SKC=



000
FTUS45 KRIW 291732
TAFRKS
TAF
KRKS 291732Z 2918/3018 VRB06KT P6SM SKC
     FM292100 29009KT P6SM SKC
     FM300400 VRB04KT P6SM SKC=



000
FTUS45 KRIW 291732
TAFLND
TAF
KLND 291732Z 2918/3018 VRB05KT P6SM SKC
     FM292100 06006KT P6SM SKC
     FM300300 24009KT P6SM SKC
     FM301400 VRB03KT P6SM SKC=



000
FTUS45 KRIW 291732
TAFCPR
TAF
KCPR 291732Z 2918/3018 VRB06KT P6SM SKC
     FM300900 25007KT P6SM SKC=



000
FTUS45 KRIW 291732
TAFWRL
TAF
KWRL 291732Z 2918/3018 VRB04KT P6SM SKC
     FM292200 05007KT P6SM FEW100
     FM300500 16005KT P6SM SKC
     FM301500 VRB04KT P6SM SKC=



000
FTUS45 KRIW 291128
TAFLND
TAF
KLND 291128Z 2912/3012 VRB05KT P6SM SKC
     FM291800 08006KT P6SM SKC
     FM300300 24007KT P6SM SKC=



000
FTUS45 KRIW 291128
TAFCPR
TAF
KCPR 291128Z 2912/3012 VRB06KT P6SM SKC=



000
FTUS45 KRIW 291128
TAFRKS
TAF
KRKS 291128Z 2912/3012 VRB06KT P6SM SKC
     FM292100 29009KT P6SM SKC
     FM300400 VRB06KT P6SM SKC=



000
FTUS45 KRIW 291128
TAFWRL
TAF
KWRL 291128Z 2912/3012 16006KT P6SM SKC
     FM292200 08008KT P6SM SKC
     FM300500 16007KT P6SM SKC=



000
FTUS45 KRIW 291128
TAFBPI
TAF
KBPI 291128Z 2912/3012 VRB05KT P6SM SKC
     FM300200 36008KT P6SM SKC=



000
FTUS45 KRIW 291128
TAFCOD
TAF
KCOD 291128Z 2912/3012 VRB06KT P6SM SKC
     FM291700 12008KT P6SM FEW070
     FM300400 22007KT P6SM SKC
      AMD LTD TO CLD VIS AND WIND=



000
FTUS45 KRIW 291128
TAFJAC
TAF
KJAC 291128Z 2912/3012 VRB05KT P6SM SKC
     FM292000 29008KT P6SM FEW100
     FM300300 36006KT P6SM SKC
      AMD LTD TO CLD VIS AND WIND=



000
FTUS45 KRIW 291128
TAFRIW
TAF
KRIW 291128Z 2912/3012 30008KT P6SM SKC
     FM291500 VRB06KT P6SM SKC
     FM300500 32008KT P6SM SKC=



000
FTUS45 KRIW 290521
TAFCOD
TAF
KCOD 290521Z 2906/3006 VRB06KT P6SM SKC
     FM291900 08006KT P6SM FEW070
      AMD LTD TO CLD VIS AND WIND=



000
FTUS45 KRIW 290521
TAFWRL
TAF
KWRL 290521Z 2906/3006 VRB06KT P6SM SKC
     FM291800 VRB05KT P6SM SKC=



000
FTUS45 KRIW 290521
TAFBPI
TAF
KBPI 290521Z 2906/3006 VRB05KT P6SM SKC
     FM292100 25008KT P6SM SKC=



000
FTUS45 KRIW 290521
TAFLND
TAF
KLND 290521Z 2906/3006 24007KT P6SM SKC
     FM291800 06006KT P6SM SKC
     FM300300 24007KT P6SM SKC=



000
FTUS45 KRIW 290521
TAFBPI
TAF
KBPI 290521Z 2906/3006 VRB05KT P6SM SKC
     FM292100 25008KT P6SM SKC=



000
FTUS45 KRIW 290521
TAFRIW
TAF
KRIW 290521Z 2906/3006 VRB06KT P6SM SKC
     FM292000 21011KT P6SM SKC
     FM300300 32008KT P6SM SKC=



000
FTUS45 KRIW 290521
TAFRKS
TAF
KRKS 290521Z 2906/3006 VRB06KT P6SM SKC
     FM292100 27009KT P6SM SKC
     FM300400 VRB06KT P6SM SKC=



000
FTUS45 KRIW 290521
TAFCPR
TAF
KCPR 290521Z 2906/3006 VRB06KT P6SM SKC
     FM292000 27008KT P6SM SKC=



000
FTUS45 KRIW 290521
TAFJAC
TAF
KJAC 290521Z 2906/3006 36006KT P6SM SKC
     FM291800 20008KT P6SM FEW100
     FM300200 36006KT P6SM SKC
      AMD LTD TO CLD VIS AND WIND=



000
FTUS45 KRIW 290521
TAFJAC
TAF
KJAC 290521Z 2906/3006 36006KT P6SM SKC
     FM291800 20008KT P6SM FEW100
     FM300200 36006KT P6SM SKC
      AMD LTD TO CLD VIS AND WIND=



000
FTUS45 KRIW 290521
TAFCOD
TAF
KCOD 290521Z 2906/3006 VRB06KT P6SM SKC
     FM291900 08006KT P6SM FEW070
      AMD LTD TO CLD VIS AND WIND=



000
FTUS45 KRIW 290521
TAFWRL
TAF
KWRL 290521Z 2906/3006 VRB06KT P6SM SKC
     FM291800 VRB05KT P6SM SKC=



000
FTUS45 KRIW 290521
TAFRKS
TAF
KRKS 290521Z 2906/3006 VRB06KT P6SM SKC
     FM292100 27009KT P6SM SKC
     FM300400 VRB06KT P6SM SKC=



000
FTUS45 KRIW 290521
TAFCPR
TAF
KCPR 290521Z 2906/3006 VRB06KT P6SM SKC
     FM292000 27008KT P6SM SKC=



000
FTUS45 KRIW 290521
TAFRIW
TAF
KRIW 290521Z 2906/3006 VRB06KT P6SM SKC
     FM292000 21011KT P6SM SKC
     FM300300 32008KT P6SM SKC=



000
FTUS45 KRIW 290521
TAFLND
TAF
KLND 290521Z 2906/3006 24007KT P6SM SKC
     FM291800 06006KT P6SM SKC
     FM300300 24007KT P6SM SKC=



000
FTUS45 KRIW 282320
TAFBPI
TAF
KBPI 282320Z 2900/2924 30009G19KT P6SM SKC
     FM290300 VRB05KT P6SM SKC
     FM292100 25008KT P6SM SKC=



000
FTUS45 KRIW 282320
TAFRKS
TAF
KRKS 282320Z 2900/2924 28012G20KT P6SM SKC
     FM290200 31008KT P6SM SKC
     FM291200 VRB04KT P6SM SKC
     FM292100 27009KT P6SM SKC=



000
FTUS45 KRIW 282320
TAFCOD
TAF
KCOD 282320Z 2900/2924 26015G25KT P6SM FEW060
     FM290200 VRB06KT P6SM SCT080
     FM290800 VRB04KT P6SM SKC
     FM291900 08006KT P6SM FEW070
      AMD LTD TO CLD VIS AND WIND=



000
FTUS45 KRIW 282320
TAFCPR
TAF
KCPR 282320Z 2900/2924 28015G21KT P6SM SKC
     FM290200 01009KT P6SM SKC
     FM290600 VRB06KT P6SM SKC
     FM292000 27008KT P6SM SKC=



000
FTUS45 KRIW 282320
TAFRIW
TAF
KRIW 282320Z 2900/2924 32009G17KT P6SM SKC
     FM290100 32010KT P6SM SKC
     FM290500 VRB05KT P6SM SKC
     FM290900 29008KT P6SM SKC
     FM292000 12006KT P6SM SKC=



000
FTUS45 KRIW 282320
TAFCPR
TAF
KCPR 282320Z 2900/2924 28015G21KT P6SM SKC
     FM290200 01009KT P6SM SKC
     FM290600 VRB06KT P6SM SKC
     FM292000 27008KT P6SM SKC=



000
FTUS45 KRIW 282320
TAFWRL
TAF
KWRL 282320Z 2900/2924 34011KT P6SM FEW080
     FM290200 VRB06KT P6SM FEW120
     FM291800 VRB05KT P6SM SKC=



000
FTUS45 KRIW 282320
TAFRIW
TAF
KRIW 282320Z 2900/2924 32009G17KT P6SM SKC
     FM290100 32010KT P6SM SKC
     FM290500 VRB05KT P6SM SKC
     FM290900 29008KT P6SM SKC
     FM292000 12006KT P6SM SKC=



000
FTUS45 KRIW 282320
TAFLND
TAF
KLND 282320Z 2900/2924 36009KT P6SM SKC
     FM290200 24007KT P6SM SKC
     FM291800 06006KT P6SM SKC=



000
FTUS45 KRIW 282320
TAFRKS
TAF
KRKS 282320Z 2900/2924 28012G20KT P6SM SKC
     FM290200 31008KT P6SM SKC
     FM291200 VRB04KT P6SM SKC
     FM292100 27009KT P6SM SKC=



000
FTUS45 KRIW 282320
TAFWRL
TAF
KWRL 282320Z 2900/2924 34011KT P6SM FEW080
     FM290200 VRB06KT P6SM FEW120
     FM291800 VRB05KT P6SM SKC=



000
FTUS45 KRIW 282320
TAFLND
TAF
KLND 282320Z 2900/2924 36009KT P6SM SKC
     FM290200 24007KT P6SM SKC
     FM291800 06006KT P6SM SKC=



000
FTUS45 KRIW 282320
TAFJAC
TAF
KJAC 282320Z 2900/2924 30008KT P6SM FEW060
     FM290300 36006KT P6SM SKC
     FM291800 20008KT P6SM FEW100
      AMD LTD TO CLD VIS AND WIND=



000
FTUS45 KRIW 282320
TAFBPI
TAF
KBPI 282320Z 2900/2924 30009G19KT P6SM SKC
     FM290300 VRB05KT P6SM SKC
     FM292100 25008KT P6SM SKC=



000
FTUS45 KRIW 282320
TAFCOD
TAF
KCOD 282320Z 2900/2924 26015G25KT P6SM FEW060
     FM290200 VRB06KT P6SM SCT080
     FM290800 VRB04KT P6SM SKC
     FM291900 08006KT P6SM FEW070
      AMD LTD TO CLD VIS AND WIND=



000
FTUS45 KRIW 282320
TAFJAC
TAF
KJAC 282320Z 2900/2924 30008KT P6SM FEW060
     FM290300 36006KT P6SM SKC
     FM291800 20008KT P6SM FEW100
      AMD LTD TO CLD VIS AND WIND=



000
FTUS45 KRIW 281934 AAA
TAFBPI
TAF AMD
KBPI 281934Z 2820/2918 33010KT P6SM FEW100
     FM290700 VRB05KT P6SM SKC=



000
FTUS45 KRIW 281934 AAB
TAFRIW
TAF AMD
KRIW 281934Z 2820/2918 27011G22KT P6SM SKC
     FM290100 32010KT P6SM SKC
     FM290500 VRB05KT P6SM SKC
     FM290900 29008KT P6SM SKC=



000
FTUS45 KRIW 281934 AAB
TAFRIW
TAF AMD
KRIW 281934Z 2820/2918 27011G22KT P6SM SKC
     FM290100 32010KT P6SM SKC
     FM290500 VRB05KT P6SM SKC
     FM290900 29008KT P6SM SKC=



000
FTUS45 KRIW 281934 AAA
TAFBPI
TAF AMD
KBPI 281934Z 2820/2918 33010KT P6SM FEW100
     FM290700 VRB05KT P6SM SKC=



000
FTUS45 KRIW 281929 AAA
TAFJAC
TAF AMD
KJAC 281929Z 2819/2918 18006KT P6SM SCT060
     FM290600 36006KT P6SM SKC
      AMD LTD TO CLD VIS AND WIND=



000
FTUS45 KRIW 281730
TAFLND
TAF
KLND 281730Z 2818/2918 36009KT P6SM SKC
     FM290200 24007KT P6SM SKC=



000
FTUS45 KRIW 281730
TAFRIW
TAF
KRIW 281730Z 2818/2918 30019G25KT P6SM SKC
     FM290100 32010KT P6SM SKC
     FM290500 VRB05KT P6SM SKC
     FM290900 29008KT P6SM SKC=



000
FTUS45 KRIW 281730
TAFJAC
TAF
KJAC 281730Z 2818/2918 30009G15KT P6SM FEW060
     FM290300 36006KT P6SM SKC
      AMD LTD TO CLD VIS AND WIND=



000
FTUS45 KRIW 281730
TAFCPR
TAF
KCPR 281730Z 2818/2918 27018G26KT P6SM SKC
     FM290200 01009KT P6SM SKC
     FM290600 VRB06KT P6SM SKC=



000
FTUS45 KRIW 281730
TAFRKS
TAF
KRKS 281730Z 2818/2918 28014G24KT P6SM SKC
     FM290200 31008KT P6SM SKC
     FM291200 VRB04KT P6SM SKC=



000
FTUS45 KRIW 281730
TAFCOD
TAF
KCOD 281730Z 2818/2918 26012G24KT P6SM VCSH SCT060
     FM290100 VRB06KT P6SM BKN080
     FM290800 VRB04KT P6SM SKC
      AMD LTD TO CLD VIS AND WIND=



000
FTUS45 KRIW 281730
TAFWRL
TAF
KWRL 281730Z 2818/2918 32010KT P6SM FEW080
     FM282100 03008KT P6SM FEW080
     FM290300 VRB03KT P6SM FEW120=



000
FTUS45 KRIW 281730
TAFBPI
TAF
KBPI 281730Z 2818/2918 34009G19KT P6SM FEW100
     FM290700 VRB05KT P6SM SKC=



000
FTUS45 KRIW 281730
TAFCPR
TAF
KCPR 281730Z 2818/2918 27018G26KT P6SM SKC
     FM290200 01009KT P6SM SKC
     FM290600 VRB06KT P6SM SKC=



000
FTUS45 KRIW 281730
TAFRKS
TAF
KRKS 281730Z 2818/2918 28014G24KT P6SM SKC
     FM290200 31008KT P6SM SKC
     FM291200 VRB04KT P6SM SKC=



000
FTUS45 KRIW 281730
TAFJAC
TAF
KJAC 281730Z 2818/2918 30009G15KT P6SM FEW060
     FM290300 36006KT P6SM SKC
      AMD LTD TO CLD VIS AND WIND=



000
FTUS45 KRIW 281730
TAFCOD
TAF
KCOD 281730Z 2818/2918 26012G24KT P6SM VCSH SCT060
     FM290100 VRB06KT P6SM BKN080
     FM290800 VRB04KT P6SM SKC
      AMD LTD TO CLD VIS AND WIND=



000
FTUS45 KRIW 281730
TAFWRL
TAF
KWRL 281730Z 2818/2918 32010KT P6SM FEW080
     FM282100 03008KT P6SM FEW080
     FM290300 VRB03KT P6SM FEW120=



000
FTUS45 KRIW 281730
TAFRIW
TAF
KRIW 281730Z 2818/2918 30019G25KT P6SM SKC
     FM290100 32010KT P6SM SKC
     FM290500 VRB05KT P6SM SKC
     FM290900 29008KT P6SM SKC=



000
FTUS45 KRIW 281730
TAFLND
TAF
KLND 281730Z 2818/2918 36009KT P6SM SKC
     FM290200 24007KT P6SM SKC=



000
FTUS45 KRIW 281730
TAFBPI
TAF
KBPI 281730Z 2818/2918 34009G19KT P6SM FEW100
     FM290700 VRB05KT P6SM SKC=



000
FTUS45 KRIW 281135
TAFBPI
TAF
KBPI 281135Z 2812/2912 VRB06KT P6SM SKC
     FM281700 32010KT P6SM SKC
     FM290200 35007KT P6SM SKC=



000
FTUS45 KRIW 281135
TAFBPI
TAF
KBPI 281135Z 2812/2912 VRB06KT P6SM SKC
     FM281700 32010KT P6SM SKC
     FM290200 35007KT P6SM SKC=



000
FTUS45 KRIW 281135
TAFWRL
TAF
KWRL 281135Z 2812/2912 VRB06KT P6SM SKC
     FM281900 01008KT P6SM FEW100
     FM290300 15006KT P6SM SKC=



000
FTUS45 KRIW 281135
TAFCPR
TAF
KCPR 281135Z 2812/2912 25011KT P6SM SKC
     FM281500 27015G25KT P6SM SKC
     FM290100 01009KT P6SM SKC
     FM290600 VRB06KT P6SM SKC=



000
FTUS45 KRIW 281135
TAFCOD
TAF
KCOD 281135Z 2812/2912 28011KT P6SM SCT100
     FM290200 VRB06KT P6SM FEW100
      AMD LTD TO CLD VIS AND WIND=



000
FTUS45 KRIW 281135
TAFRIW
TAF
KRIW 281135Z 2812/2912 29012KT P6SM SKC
     FM281500 31014G24KT P6SM SKC
     FM290100 35010KT P6SM SKC=



000
FTUS45 KRIW 281135
TAFRKS
TAF
KRKS 281135Z 2812/2912 25011KT P6SM SKC
     FM281600 28014G24KT P6SM SKC
     FM290100 31008KT P6SM SKC=



000
FTUS45 KRIW 281135
TAFLND
TAF
KLND 281135Z 2812/2912 VRB06KT P6SM SKC
     FM281800 34009KT P6SM SKC
     FM290200 24008KT P6SM SKC=



000
FTUS45 KRIW 281135
TAFJAC
TAF
KJAC 281135Z 2812/2912 VRB04KT P6SM VCFG FEW003 SCT050
     FM281600 29007KT P6SM FEW060
     FM290300 36006KT P6SM SKC
      AMD LTD TO CLD VIS AND WIND=



000
FTUS45 KRIW 281135
TAFJAC
TAF
KJAC 281135Z 2812/2912 VRB04KT P6SM VCFG FEW003 SCT050
     FM281600 29007KT P6SM FEW060
     FM290300 36006KT P6SM SKC
      AMD LTD TO CLD VIS AND WIND=



000
FTUS45 KRIW 281135
TAFWRL
TAF
KWRL 281135Z 2812/2912 VRB06KT P6SM SKC
     FM281900 01008KT P6SM FEW100
     FM290300 15006KT P6SM SKC=



000
FTUS45 KRIW 281135
TAFLND
TAF
KLND 281135Z 2812/2912 VRB06KT P6SM SKC
     FM281800 34009KT P6SM SKC
     FM290200 24008KT P6SM SKC=



000
FTUS45 KRIW 281135
TAFRKS
TAF
KRKS 281135Z 2812/2912 25011KT P6SM SKC
     FM281600 28014G24KT P6SM SKC
     FM290100 31008KT P6SM SKC=



000
FTUS45 KRIW 281135
TAFRIW
TAF
KRIW 281135Z 2812/2912 29012KT P6SM SKC
     FM281500 31014G24KT P6SM SKC
     FM290100 35010KT P6SM SKC=



000
FTUS45 KRIW 281135
TAFCPR
TAF
KCPR 281135Z 2812/2912 25011KT P6SM SKC
     FM281500 27015G25KT P6SM SKC
     FM290100 01009KT P6SM SKC
     FM290600 VRB06KT P6SM SKC=



000
FTUS45 KRIW 281135
TAFCOD
TAF
KCOD 281135Z 2812/2912 28011KT P6SM SCT100
     FM290200 VRB06KT P6SM FEW100
      AMD LTD TO CLD VIS AND WIND=



000
FTUS45 KRIW 280520
TAFCPR
TAF
KCPR 280520Z 2806/2906 26011KT P6SM SKC
     FM281500 25015G25KT P6SM SKC
     FM290100 01009KT P6SM SKC=



000
FTUS45 KRIW 280520
TAFBPI
TAF
KBPI 280520Z 2806/2906 31006KT P6SM SCT120
     FM281500 VRB06KT P6SM SKC
     FM281900 30011KT P6SM SKC
     FM290200 31006KT P6SM SKC=



000
FTUS45 KRIW 280520
TAFWRL
TAF
KWRL 280520Z 2806/2906 VRB06KT P6SM SKC
     FM282000 VRB06KT P6SM SCT100=



000
FTUS45 KRIW 280520
TAFRIW
TAF
KRIW 280520Z 2806/2906 31012G20KT P6SM SKC
     FM281500 31014G24KT P6SM SKC
     FM290100 35010KT P6SM SKC=



000
FTUS45 KRIW 280520
TAFRKS
TAF
KRKS 280520Z 2806/2906 30014G22KT P6SM SKC
     FM280800 30011KT P6SM SKC
     FM281600 27014G22KT P6SM SKC
     FM290100 31008KT P6SM SKC=



000
FTUS45 KRIW 280520
TAFJAC
TAF
KJAC 280520Z 2806/2906 19008KT P6SM VCSH SCT100
     FM280800 19008KT P6SM SCT120
     FM282000 20008KT P6SM SCT100
     FM290300 35006KT P6SM SKC
      AMD LTD TO CLD VIS AND WIND=



000
FTUS45 KRIW 280520
TAFCOD
TAF
KCOD 280520Z 2806/2906 26014G24KT P6SM SCT090
     FM281000 27011KT P6SM SCT100
     FM290200 VRB06KT P6SM FEW100
      AMD LTD TO CLD VIS AND WIND=



000
FTUS45 KRIW 280520
TAFLND
TAF
KLND 280520Z 2806/2906 27011KT P6SM FEW120
     FM281500 28005KT P6SM FEW090=



000
FTUS45 KRIW 280337 AAA
TAFRIW
TAF AMD
KRIW 280337Z 2804/2824 28020G35KT P6SM FEW120
     FM280500 31012G20KT P6SM SKC
     FM281500 31017G27KT P6SM SKC=



000
FTUS45 KRIW 272320
TAFRIW
TAF
KRIW 272320Z 2800/2824 28020G35KT P6SM FEW120
     FM280400 31012G20KT P6SM SKC
     FM281500 31017G27KT P6SM SKC=



000
FTUS45 KRIW 272320
TAFLND
TAF
KLND 272320Z 2800/2824 24020G32KT P6SM FEW120
     FM280400 27011KT P6SM FEW120
     FM281500 28005KT P6SM FEW090=



000
FTUS45 KRIW 272320
TAFCOD
TAF
KCOD 272320Z 2800/2824 VRB15G30KT P6SM VCTS BKN060CB
     FM280400 31011KT P6SM SCT090
     FM281800 27011KT P6SM SCT100
      AMD LTD TO CLD VIS AND WIND=



000
FTUS45 KRIW 272320
TAFLND
TAF
KLND 272320Z 2800/2824 24020G32KT P6SM FEW120
     FM280400 27011KT P6SM FEW120
     FM281500 28005KT P6SM FEW090=



000
FTUS45 KRIW 272320
TAFJAC
TAF
KJAC 272320Z 2800/2824 27015G25KT P6SM VCTS SCT030 BKN040CB
     FM280400 19008KT P6SM SCT100
     FM282000 20008KT P6SM SCT100
      AMD LTD TO CLD VIS AND WIND=



000
FTUS45 KRIW 272320
TAFCPR
TAF
KCPR 272320Z 2800/2824 26025G40KT P6SM VCTS FEW100CB
     FM280200 26020G30KT P6SM SKC
     FM280400 02008KT P6SM SKC
     FM280900 VRB05KT P6SM SKC
     FM281500 25015G25KT P6SM SKC=



000
FTUS45 KRIW 272320
TAFRIW
TAF
KRIW 272320Z 2800/2824 28020G35KT P6SM FEW120
     FM280400 31012G20KT P6SM SKC
     FM281500 31017G27KT P6SM SKC=



000
FTUS45 KRIW 272320
TAFWRL
TAF
KWRL 272320Z 2800/2824 32025G35KT P6SM VCTS SCT060CB
     FM280300 34010KT P6SM SKC
     FM281300 VRB04KT P6SM SKC=



000
FTUS45 KRIW 272320
TAFBPI
TAF
KBPI 272320Z 2800/2824 28018G28KT P6SM VCSH SCT110
     FM280200 31011KT P6SM SCT120
     FM281500 VRB06KT P6SM SKC
     FM281900 30011KT P6SM SKC=



000
FTUS45 KRIW 272320
TAFJAC
TAF
KJAC 272320Z 2800/2824 27015G25KT P6SM VCTS SCT030 BKN040CB
     FM280400 19008KT P6SM SCT100
     FM282000 20008KT P6SM SCT100
      AMD LTD TO CLD VIS AND WIND=



000
FTUS45 KRIW 272320
TAFWRL
TAF
KWRL 272320Z 2800/2824 32025G35KT P6SM VCTS SCT060CB
     FM280300 34010KT P6SM SKC
     FM281300 VRB04KT P6SM SKC=



000
FTUS45 KRIW 272320
TAFCPR
TAF
KCPR 272320Z 2800/2824 26025G40KT P6SM VCTS FEW100CB
     FM280200 26020G30KT P6SM SKC
     FM280400 02008KT P6SM SKC
     FM280900 VRB05KT P6SM SKC
     FM281500 25015G25KT P6SM SKC=



000
FTUS45 KRIW 272320
TAFBPI
TAF
KBPI 272320Z 2800/2824 28018G28KT P6SM VCSH SCT110
     FM280200 31011KT P6SM SCT120
     FM281500 VRB06KT P6SM SKC
     FM281900 30011KT P6SM SKC=



000
FTUS45 KRIW 272320
TAFRKS
TAF
KRKS 272320Z 2800/2824 27022G32KT P6SM SKC
     FM280500 28011KT P6SM SKC
     FM281600 27014G24KT P6SM SKC=



000
FTUS45 KRIW 272320
TAFRKS
TAF
KRKS 272320Z 2800/2824 27022G32KT P6SM SKC
     FM280500 28011KT P6SM SKC
     FM281600 27014G24KT P6SM SKC=



000
FTUS45 KRIW 272320
TAFCOD
TAF
KCOD 272320Z 2800/2824 VRB15G30KT P6SM VCTS BKN060CB
     FM280400 31011KT P6SM SCT090
     FM281800 27011KT P6SM SCT100
      AMD LTD TO CLD VIS AND WIND=



000
FTUS45 KRIW 271756 AAA
TAFJAC
TAF AMD
KJAC 271756Z 2718/2818 VRB05KT P6SM SCT100
     FM271900 27025G35KT P6SM VCTS SCT030 BKN040CB
     FM280200 19008KT P6SM SCT100
      AMD LTD TO CLD VIS AND WIND=



000
FTUS45 KRIW 271735
TAFRKS
TAF
KRKS 271735Z 2718/2818 22025G35KT P6SM FEW110
     FM272000 27025G35KT P6SM SKC
     FM280500 28011KT P6SM SKC
     FM281600 27014G24KT P6SM SKC=



000
FTUS45 KRIW 271735
TAFWRL
TAF
KWRL 271735Z 2718/2818 32009KT P6SM SCT110
     FM272300 34025G35KT P6SM VCSH SCT060
     FM280300 34010KT P6SM SKC
     FM281300 VRB04KT P6SM SKC=



000
FTUS45 KRIW 271735
TAFCOD
TAF
KCOD 271735Z 2718/2818 02010G20KT P6SM SCT110
     FM272000 VRB15G30KT P6SM VCTS BKN060CB
     FM280400 31011KT P6SM SCT090
      AMD LTD TO CLD VIS AND WIND=



000
FTUS45 KRIW 271735
TAFBPI
TAF
KBPI 271735Z 2718/2818 25018G28KT P6SM SCT110
     FM280200 31011KT P6SM SCT120
     FM281500 31004KT P6SM SKC=



000
FTUS45 KRIW 271735
TAFCPR
TAF
KCPR 271735Z 2718/2818 22018G28KT P6SM SCT120
     FM272100 23025G38KT P6SM SCT100
     FM272300 26025G38KT P6SM FEW100
     FM280300 26020G30KT P6SM SKC
     FM280600 02008KT P6SM SKC
     FM280900 VRB05KT P6SM SKC
     FM281500 25015G25KT P6SM SKC=



000
FTUS45 KRIW 271735
TAFJAC
TAF
KJAC 271735Z 2718/2818 VRB05KT P6SM SCT100
     FM271900 27015G25KT P6SM VCTS SCT030 BKN040CB
     FM280200 19008KT P6SM SCT100
      AMD LTD TO CLD VIS AND WIND=



000
FTUS45 KRIW 271735
TAFLND
TAF
KLND 271735Z 2718/2818 24020G32KT P6SM FEW120
     FM280300 27010KT P6SM FEW120
     FM281500 28005KT P6SM FEW090=



000
FTUS45 KRIW 271735
TAFRIW
TAF
KRIW 271735Z 2718/2818 22012G22KT P6SM SKC
     FM271900 22020G35KT P6SM SKC
     FM272300 28020G35KT P6SM FEW120
     FM280300 31012G20KT P6SM SKC
     FM281500 31017G27KT P6SM SKC=



000
FTUS45 KRIW 271434 AAA
TAFLND
TAF AMD
KLND 271434Z 2715/2812 23011KT P6SM FEW120
      TEMPO 2715/2716 23030G40KT
     FM271800 24020G32KT P6SM FEW120
     FM280300 27010KT P6SM FEW120=



000
FTUS45 KRIW 271434 AAA
TAFLND
TAF AMD
KLND 271434Z 2715/2812 23011KT P6SM FEW120
      TEMPO 2715/2716 23030G40KT
     FM271800 24020G32KT P6SM FEW120
     FM280300 27010KT P6SM FEW120=



000
FTUS45 KRIW 271424 AAA
TAFCOD
TAF AMD
KCOD 271424Z 2714/2812 35010G18KT P6SM SCT110
     FM272000 VRB15G30KT P6SM VCTS BKN060CB
     FM280400 31011KT P6SM SCT090
      AMD LTD TO CLD VIS AND WIND=



000
FTUS45 KRIW 271326 AAA
TAFCPR
TAF AMD
KCPR 271326Z 2713/2812 22006KT P6SM VCTS SCT090CB BKN110
      TEMPO 2713/2715 21012G18KT
     FM271500 21012G18KT P6SM VCTS SCT090CB BKN110
     FM271600 22018G28KT P6SM SCT120
     FM272100 23025G38KT P6SM SCT100
     FM272300 26025G38KT P6SM FEW100
     FM280300 26018G28KT P6SM SKC=



000
FTUS45 KRIW 271120
TAFWRL
TAF
KWRL 271120Z 2712/2812 VRB06KT P6SM FEW120
     FM271700 32009KT P6SM SCT110
     FM272300 34025G35KT P6SM VCSH SCT060
     FM280300 34010KT P6SM SKC=



000
FTUS45 KRIW 271120
TAFCOD
TAF
KCOD 271120Z 2712/2812 02008KT P6SM FEW110
     FM272000 VRB15G30KT P6SM VCTS BKN060CB
     FM280400 31011KT P6SM SCT090
      AMD LTD TO CLD VIS AND WIND=



000
FTUS45 KRIW 271120
TAFLND
TAF
KLND 271120Z 2712/2812 23011KT P6SM FEW120
     FM271800 24020G32KT P6SM FEW120
     FM280300 27010KT P6SM FEW120=



000
FTUS45 KRIW 271120
TAFWRL
TAF
KWRL 271120Z 2712/2812 VRB06KT P6SM FEW120
     FM271700 32009KT P6SM SCT110
     FM272300 34025G35KT P6SM VCSH SCT060
     FM280300 34010KT P6SM SKC=



000
FTUS45 KRIW 271120
TAFLND
TAF
KLND 271120Z 2712/2812 23011KT P6SM FEW120
     FM271800 24020G32KT P6SM FEW120
     FM280300 27010KT P6SM FEW120=



000
FTUS45 KRIW 271120
TAFRIW
TAF
KRIW 271120Z 2712/2812 21009KT P6SM FEW120
     FM271800 22020G35KT P6SM SKC
     FM272300 28020G35KT P6SM FEW120
     FM280300 31012G20KT P6SM SKC=



000
FTUS45 KRIW 271120
TAFCPR
TAF
KCPR 271120Z 2712/2812 21012G18KT P6SM VCTS SCT090CB BKN110
     FM271400 22018G28KT P6SM SCT120
     FM272100 23025G38KT P6SM SCT100
     FM272300 26025G38KT P6SM FEW100
     FM280300 26018G28KT P6SM SKC=



000
FTUS45 KRIW 271120
TAFBPI
TAF
KBPI 271120Z 2712/2812 VRB05KT P6SM FEW120
     FM271600 25011KT P6SM SKC
     FM271800 28015G30KT P6SM SCT110
     FM280200 31011KT P6SM SCT120=



000
FTUS45 KRIW 271120
TAFCPR
TAF
KCPR 271120Z 2712/2812 21012G18KT P6SM VCTS SCT090CB BKN110
     FM271400 22018G28KT P6SM SCT120
     FM272100 23025G38KT P6SM SCT100
     FM272300 26025G38KT P6SM FEW100
     FM280300 26018G28KT P6SM SKC=



000
FTUS45 KRIW 271120
TAFJAC
TAF
KJAC 271120Z 2712/2812 20009KT P6SM FEW100
     FM271600 25011KT P6SM FEW060
     FM271800 27015G25KT P6SM VCTS SCT030 BKN040CB
     FM280200 19008KT P6SM SCT100
      AMD LTD TO CLD VIS AND WIND=



000
FTUS45 KRIW 271120
TAFCOD
TAF
KCOD 271120Z 2712/2812 02008KT P6SM FEW110
     FM272000 VRB15G30KT P6SM VCTS BKN060CB
     FM280400 31011KT P6SM SCT090
      AMD LTD TO CLD VIS AND WIND=



000
FTUS45 KRIW 271120
TAFRKS
TAF
KRKS 271120Z 2712/2812 17011KT P6SM FEW120
     FM271500 22010G17KT P6SM SKC
     FM271700 24017G25KT P6SM FEW110
     FM272000 27025G35KT P6SM SKC
     FM280500 28011KT P6SM SKC=



000
FTUS45 KRIW 271120
TAFRIW
TAF
KRIW 271120Z 2712/2812 21009KT P6SM FEW120
     FM271800 22020G35KT P6SM SKC
     FM272300 28020G35KT P6SM FEW120
     FM280300 31012G20KT P6SM SKC=



000
FTUS45 KRIW 271120
TAFRKS
TAF
KRKS 271120Z 2712/2812 17011KT P6SM FEW120
     FM271500 22010G17KT P6SM SKC
     FM271700 24017G25KT P6SM FEW110
     FM272000 27025G35KT P6SM SKC
     FM280500 28011KT P6SM SKC=



000
FTUS45 KRIW 271120
TAFJAC
TAF
KJAC 271120Z 2712/2812 20009KT P6SM FEW100
     FM271600 25011KT P6SM FEW060
     FM271800 27015G25KT P6SM VCTS SCT030 BKN040CB
     FM280200 19008KT P6SM SCT100
      AMD LTD TO CLD VIS AND WIND=



000
FTUS45 KRIW 271120
TAFBPI
TAF
KBPI 271120Z 2712/2812 VRB05KT P6SM FEW120
     FM271600 25011KT P6SM SKC
     FM271800 28015G30KT P6SM SCT110
     FM280200 31011KT P6SM SCT120=



000
FTUS45 KRIW 270520
TAFCPR
TAF
KCPR 270520Z 2706/2806 17008KT P6SM SKC
     FM271100 21011KT P6SM SKC
     FM271500 22018G28KT P6SM SCT100
     FM272100 23025G38KT P6SM SCT100
     FM280500 26011KT P6SM SKC=



000
FTUS45 KRIW 270520
TAFCOD
TAF
KCOD 270520Z 2706/2806 24008KT P6SM FEW100
     FM271400 02008KT P6SM SKC
     FM272000 VRB15G30KT P6SM VCTS BKN060CB
     FM280400 31011KT P6SM SCT090
      AMD LTD TO CLD VIS AND WIND=



000
FTUS45 KRIW 270520
TAFRIW
TAF
KRIW 270520Z 2706/2806 29011KT P6SM FEW120
     FM271700 22011KT P6SM SKC
     FM271800 22020G35KT P6SM SKC
     FM272300 28020G35KT P6SM FEW120
     FM280300 28012G20KT P6SM SKC=



000
FTUS45 KRIW 270520
TAFLND
TAF
KLND 270520Z 2706/2806 24010KT P6SM FEW120
     FM271800 24020G32KT P6SM FEW120
     FM280300 27011KT P6SM FEW120=



000
FTUS45 KRIW 270520
TAFBPI
TAF
KBPI 270520Z 2706/2806 VRB05KT P6SM FEW120
     FM271600 26011KT P6SM SKC
     FM271800 28015G30KT P6SM SCT120
     FM280200 31011KT P6SM SCT120=



000
FTUS45 KRIW 270520
TAFRKS
TAF
KRKS 270520Z 2706/2806 17011KT P6SM SCT150
     FM271500 23011KT P6SM SKC
     FM271700 24017G25KT P6SM SKC
     FM272000 27025G35KT P6SM SKC
     FM280500 28011KT P6SM SKC=



000
FTUS45 KRIW 270520
TAFJAC
TAF
KJAC 270520Z 2706/2806 18009KT P6SM FEW100
     FM271600 25011KT P6SM FEW060
     FM271800 27015G25KT P6SM VCTS SCT030 BKN040CB
     FM280200 19008KT P6SM SCT100
      AMD LTD TO CLD VIS AND WIND=



000
FTUS45 KRIW 270520
TAFWRL
TAF
KWRL 270520Z 2706/2806 VRB06KT P6SM FEW120
     FM272000 34025G35KT P6SM VCSH SCT060
     FM280300 34010KT P6SM SKC=



000
FTUS45 KRIW 270520
TAFCPR
TAF
KCPR 270520Z 2706/2806 17008KT P6SM SKC
     FM271100 21011KT P6SM SKC
     FM271500 22018G28KT P6SM SCT100
     FM272100 23025G38KT P6SM SCT100
     FM280500 26011KT P6SM SKC=



000
FTUS45 KRIW 270520
TAFRIW
TAF
KRIW 270520Z 2706/2806 29011KT P6SM FEW120
     FM271700 22011KT P6SM SKC
     FM271800 22020G35KT P6SM SKC
     FM272300 28020G35KT P6SM FEW120
     FM280300 28012G20KT P6SM SKC=



000
FTUS45 KRIW 270520
TAFCOD
TAF
KCOD 270520Z 2706/2806 24008KT P6SM FEW100
     FM271400 02008KT P6SM SKC
     FM272000 VRB15G30KT P6SM VCTS BKN060CB
     FM280400 31011KT P6SM SCT090
      AMD LTD TO CLD VIS AND WIND=



000
FTUS45 KRIW 270520
TAFLND
TAF
KLND 270520Z 2706/2806 24010KT P6SM FEW120
     FM271800 24020G32KT P6SM FEW120
     FM280300 27011KT P6SM FEW120=



000
FTUS45 KRIW 270520
TAFBPI
TAF
KBPI 270520Z 2706/2806 VRB05KT P6SM FEW120
     FM271600 26011KT P6SM SKC
     FM271800 28015G30KT P6SM SCT120
     FM280200 31011KT P6SM SCT120=



000
FTUS45 KRIW 270520
TAFJAC
TAF
KJAC 270520Z 2706/2806 18009KT P6SM FEW100
     FM271600 25011KT P6SM FEW060
     FM271800 27015G25KT P6SM VCTS SCT030 BKN040CB
     FM280200 19008KT P6SM SCT100
      AMD LTD TO CLD VIS AND WIND=



000
FTUS45 KRIW 270520
TAFRKS
TAF
KRKS 270520Z 2706/2806 17011KT P6SM SCT150
     FM271500 23011KT P6SM SKC
     FM271700 24017G25KT P6SM SKC
     FM272000 27025G35KT P6SM SKC
     FM280500 28011KT P6SM SKC=



000
FTUS45 KRIW 270520
TAFWRL
TAF
KWRL 270520Z 2706/2806 VRB06KT P6SM FEW120
     FM272000 34025G35KT P6SM VCSH SCT060
     FM280300 34010KT P6SM SKC=



    US Dept of Commerce
    National Oceanic and Atmospheric Administration
    National Weather Service
    1325 East West Highway
    Silver Spring, MD 20910
    Page Author: NWS Internet Services Team
Disclaimer
Information Quality
Credits
Glossary
Privacy Policy
Freedom of Information Act (FOIA)
About Us
Career Opportunities